sensor_id;sensor_type;location;lat;lon;timestamp;pressure;altitude;pressure_sealevel;temperature;humidity
22830;BME280;11581;51.250;6.778;2022-08-05T00:00:08;100835.31;;;23.68;54.83
22830;BME280;11581;51.250;6.778;2022-08-05T00:02:37;100870.44;;;23.88;54.81
22830;BME280;11581;51.250;6.778;2022-08-05T00:05:05;100862.28;;;23.88;54.91
22830;BME280;11581;51.250;6.778;2022-08-05T00:07:33;100864.78;;;23.89;55.21
22830;BME280;11581;51.250;6.778;2022-08-05T00:10:00;100857.66;;;23.88;54.83
22830;BME280;11581;51.250;6.778;2022-08-05T00:12:27;100866.88;;;23.87;54.82
22830;BME280;11581;51.250;6.778;2022-08-05T00:14:54;100786.03;;;23.29;54.97
22830;BME280;11581;51.250;6.778;2022-08-05T00:17:21;100867.34;;;23.84;55.17
22830;BME280;11581;51.250;6.778;2022-08-05T00:19:48;100881.19;;;23.83;55.03
22830;BME280;11581;51.250;6.778;2022-08-05T00:22:15;100859.13;;;23.73;55.13
22830;BME280;11581;51.250;6.778;2022-08-05T00:24:44;100875.38;;;23.79;55.86
22830;BME280;11581;51.250;6.778;2022-08-05T00:27:10;100788.53;;;23.30;55.40
22830;BME280;11581;51.250;6.778;2022-08-05T00:29:38;100873.34;;;23.75;55.60
22830;BME280;11581;51.250;6.778;2022-08-05T00:32:06;100857.41;;;23.60;55.69
22830;BME280;11581;51.250;6.778;2022-08-05T00:34:34;100878.88;;;23.68;56.42
22830;BME280;11581;51.250;6.778;2022-08-05T00:37:01;100840.53;;;23.40;55.75
22830;BME280;11581;51.250;6.778;2022-08-05T00:39:29;100877.66;;;23.64;56.02
22830;BME280;11581;51.250;6.778;2022-08-05T00:41:57;100868.31;;;23.60;56.67
22830;BME280;11581;51.250;6.778;2022-08-05T00:44:24;100849.09;;;23.55;56.16
22830;BME280;11581;51.250;6.778;2022-08-05T00:49:18;100859.84;;;23.50;56.28
22830;BME280;11581;51.250;6.778;2022-08-05T00:51:45;100853.81;;;23.48;56.66
22830;BME280;11581;51.250;6.778;2022-08-05T00:54:12;100862.41;;;23.45;56.86
22830;BME280;11581;51.250;6.778;2022-08-05T00:56:39;100868.31;;;23.42;56.90
22830;BME280;11581;51.250;6.778;2022-08-05T00:59:08;100880.50;;;23.40;57.93
22830;BME280;11581;51.250;6.778;2022-08-05T01:01:35;100881.78;;;23.37;57.38
22830;BME280;11581;51.250;6.778;2022-08-05T01:04:02;100782.47;;;22.74;57.75
22830;BME280;11581;51.250;6.778;2022-08-05T01:06:29;100875.13;;;23.33;57.75
22830;BME280;11581;51.250;6.778;2022-08-05T01:08:56;100868.03;;;23.32;57.93
22830;BME280;11581;51.250;6.778;2022-08-05T01:11:29;100878.91;;;23.32;59.54
22830;BME280;11581;51.250;6.778;2022-08-05T01:14:04;100875.59;;;23.30;59.37
22830;BME280;11581;51.250;6.778;2022-08-05T01:16:38;100868.47;;;23.29;59.73
22830;BME280;11581;51.250;6.778;2022-08-05T01:19:14;100862.25;;;23.22;59.98
22830;BME280;11581;51.250;6.778;2022-08-05T01:22:06;100873.09;;;23.29;60.28
22830;BME280;11581;51.250;6.778;2022-08-05T01:24:59;100796.59;;;22.83;60.13
22830;BME280;11581;51.250;6.778;2022-08-05T01:27:44;100776.88;;;22.69;60.20
22830;BME280;11581;51.250;6.778;2022-08-05T01:30:12;100877.25;;;23.31;57.65
22830;BME280;11581;51.250;6.778;2022-08-05T01:32:43;100862.59;;;23.32;59.20
22830;BME280;11581;51.250;6.778;2022-08-05T01:35:13;100743.16;;;22.52;59.30
22830;BME280;11581;51.250;6.778;2022-08-05T01:37:45;100875.84;;;23.29;59.82
22830;BME280;11581;51.250;6.778;2022-08-05T01:40:14;100773.81;;;22.59;59.33
22830;BME280;11581;51.250;6.778;2022-08-05T01:42:45;100891.31;;;23.28;60.22
22830;BME280;11581;51.250;6.778;2022-08-05T01:45:14;100893.19;;;23.28;59.41
22830;BME280;11581;51.250;6.778;2022-08-05T01:47:42;100905.97;;;23.27;59.43
22830;BME280;11581;51.250;6.778;2022-08-05T01:50:12;100843.03;;;22.81;60.05
22830;BME280;11581;51.250;6.778;2022-08-05T01:52:42;100925.84;;;23.28;60.07
22830;BME280;11581;51.250;6.778;2022-08-05T01:55:11;100892.16;;;23.04;60.43
22830;BME280;11581;51.250;6.778;2022-08-05T01:57:45;100678.13;;;21.65;60.65
22830;BME280;11581;51.250;6.778;2022-08-05T02:00:13;100921.09;;;22.99;59.82
22830;BME280;11581;51.250;6.778;2022-08-05T02:02:42;101006.59;;;23.34;60.86
22830;BME280;11581;51.250;6.778;2022-08-05T02:05:12;101005.38;;;23.30;60.42
22830;BME280;11581;51.250;6.778;2022-08-05T02:07:40;101018.22;;;23.41;59.97
22830;BME280;11581;51.250;6.778;2022-08-05T02:10:09;101018.63;;;23.44;60.12
22830;BME280;11581;51.250;6.778;2022-08-05T02:12:42;101010.00;;;23.47;60.93
22830;BME280;11581;51.250;6.778;2022-08-05T02:15:16;101026.94;;;23.49;61.01
22830;BME280;11581;51.250;6.778;2022-08-05T02:17:50;100973.69;;;23.35;60.26
22830;BME280;11581;51.250;6.778;2022-08-05T02:20:22;100996.75;;;23.51;61.22
22830;BME280;11581;51.250;6.778;2022-08-05T02:22:55;100982.34;;;23.50;61.08
22830;BME280;11581;51.250;6.778;2022-08-05T02:25:25;100976.06;;;23.50;60.66
22830;BME280;11581;51.250;6.778;2022-08-05T02:27:55;100980.06;;;23.47;60.67
22830;BME280;11581;51.250;6.778;2022-08-05T02:30:27;100981.59;;;23.43;61.21
22830;BME280;11581;51.250;6.778;2022-08-05T02:32:57;100988.50;;;23.39;60.97
22830;BME280;11581;51.250;6.778;2022-08-05T02:35:27;101004.94;;;23.33;60.46
22830;BME280;11581;51.250;6.778;2022-08-05T02:37:55;101010.41;;;23.26;60.78
22830;BME280;11581;51.250;6.778;2022-08-05T02:40:24;100916.41;;;22.63;60.82
22830;BME280;11581;51.250;6.778;2022-08-05T02:42:53;100965.13;;;22.89;61.42
22830;BME280;11581;51.250;6.778;2022-08-05T02:45:24;100980.22;;;22.85;61.69
22830;BME280;11581;51.250;6.778;2022-08-05T02:47:56;101029.84;;;23.05;61.88
22830;BME280;11581;51.250;6.778;2022-08-05T02:50:23;100999.41;;;22.90;61.67
22830;BME280;11581;51.250;6.778;2022-08-05T02:52:52;100985.47;;;22.80;62.11
22830;BME280;11581;51.250;6.778;2022-08-05T02:55:19;100990.16;;;22.98;61.96
22830;BME280;11581;51.250;6.778;2022-08-05T02:57:48;100907.38;;;22.38;62.35
22830;BME280;11581;51.250;6.778;2022-08-05T03:00:16;100978.06;;;22.94;62.17
22830;BME280;11581;51.250;6.778;2022-08-05T03:02:46;100965.72;;;22.91;63.35
22830;BME280;11581;51.250;6.778;2022-08-05T03:05:14;100918.91;;;22.89;62.47
22830;BME280;11581;51.250;6.778;2022-08-05T03:07:42;100891.53;;;22.84;62.51
22830;BME280;11581;51.250;6.778;2022-08-05T03:10:10;100856.03;;;22.79;62.59
22830;BME280;11581;51.250;6.778;2022-08-05T03:12:38;100865.66;;;22.75;63.09
22830;BME280;11581;51.250;6.778;2022-08-05T03:15:07;100865.75;;;22.69;63.84
22830;BME280;11581;51.250;6.778;2022-08-05T03:17:35;100865.78;;;22.62;63.13
22830;BME280;11581;51.250;6.778;2022-08-05T03:20:05;100848.13;;;22.53;64.15
22830;BME280;11581;51.250;6.778;2022-08-05T03:22:32;100848.25;;;22.34;63.12
22830;BME280;11581;51.250;6.778;2022-08-05T03:24:59;100871.41;;;22.36;63.37
22830;BME280;11581;51.250;6.778;2022-08-05T03:27:26;100869.84;;;22.29;63.32
22830;BME280;11581;51.250;6.778;2022-08-05T03:29:53;100865.72;;;22.20;63.54
22830;BME280;11581;51.250;6.778;2022-08-05T03:32:21;100851.81;;;22.03;63.76
22830;BME280;11581;51.250;6.778;2022-08-05T03:34:48;100886.91;;;22.05;64.05
22830;BME280;11581;51.250;6.778;2022-08-05T03:37:17;100902.66;;;21.89;64.78
22830;BME280;11581;51.250;6.778;2022-08-05T03:39:54;100941.06;;;21.93;66.06
22830;BME280;11581;51.250;6.778;2022-08-05T03:42:22;100926.34;;;21.76;64.75
22830;BME280;11581;51.250;6.778;2022-08-05T03:44:50;100974.50;;;21.87;65.01
22830;BME280;11581;51.250;6.778;2022-08-05T03:47:18;100979.94;;;21.87;65.45
22830;BME280;11581;51.250;6.778;2022-08-05T03:49:45;100990.81;;;21.87;65.61
22830;BME280;11581;51.250;6.778;2022-08-05T03:52:18;101005.00;;;21.89;67.15
22830;BME280;11581;51.250;6.778;2022-08-05T03:54:51;100992.88;;;21.91;66.40
22830;BME280;11581;51.250;6.778;2022-08-05T03:57:22;100981.59;;;21.94;66.62
22830;BME280;11581;51.250;6.778;2022-08-05T03:59:56;100993.47;;;22.00;67.17
22830;BME280;11581;51.250;6.778;2022-08-05T04:02:26;100974.03;;;22.03;66.41
22830;BME280;11581;51.250;6.778;2022-08-05T04:04:55;100888.00;;;21.53;65.92
22830;BME280;11581;51.250;6.778;2022-08-05T04:07:25;100888.97;;;21.65;66.73
22830;BME280;11581;51.250;6.778;2022-08-05T04:09:52;100964.53;;;22.19;65.71
22830;BME280;11581;51.250;6.778;2022-08-05T04:12:20;100927.63;;;22.11;65.61
22830;BME280;11581;51.250;6.778;2022-08-05T04:14:47;100939.63;;;22.28;65.36
22830;BME280;11581;51.250;6.778;2022-08-05T04:17:15;100932.47;;;22.34;65.33
22830;BME280;11581;51.250;6.778;2022-08-05T04:19:43;100908.31;;;22.26;65.32
22830;BME280;11581;51.250;6.778;2022-08-05T04:22:12;100929.28;;;22.43;65.05
22830;BME280;11581;51.250;6.778;2022-08-05T04:24:42;100921.28;;;22.48;65.38
22830;BME280;11581;51.250;6.778;2022-08-05T04:27:10;100900.22;;;22.50;64.63
22830;BME280;11581;51.250;6.778;2022-08-05T04:29:37;100853.91;;;22.32;64.34
22830;BME280;11581;51.250;6.778;2022-08-05T04:32:05;100849.69;;;22.36;64.42
22830;BME280;11581;51.250;6.778;2022-08-05T04:34:32;100873.59;;;22.28;64.19
22830;BME280;11581;51.250;6.778;2022-08-05T04:37:00;100945.69;;;22.61;64.04
22830;BME280;11581;51.250;6.778;2022-08-05T04:39:28;100944.63;;;22.62;63.97
22830;BME280;11581;51.250;6.778;2022-08-05T04:41:56;100937.09;;;22.64;64.24
22830;BME280;11581;51.250;6.778;2022-08-05T04:44:23;100931.66;;;22.64;63.91
22830;BME280;11581;51.250;6.778;2022-08-05T04:46:50;100928.09;;;22.64;63.95
22830;BME280;11581;51.250;6.778;2022-08-05T04:49:17;100929.78;;;22.65;63.92
22830;BME280;11581;51.250;6.778;2022-08-05T04:51:44;100935.22;;;22.65;63.93
22830;BME280;11581;51.250;6.778;2022-08-05T04:54:11;100928.50;;;22.67;63.90
22830;BME280;11581;51.250;6.778;2022-08-05T04:56:39;100933.72;;;22.69;63.77
22830;BME280;11581;51.250;6.778;2022-08-05T04:59:07;100859.78;;;22.29;64.12
22830;BME280;11581;51.250;6.778;2022-08-05T05:01:34;100928.94;;;22.64;63.84
22830;BME280;11581;51.250;6.778;2022-08-05T05:04:01;100953.97;;;22.73;63.87
22830;BME280;11581;51.250;6.778;2022-08-05T05:06:28;100939.41;;;22.61;64.09
22830;BME280;11581;51.250;6.778;2022-08-05T05:08:55;100954.56;;;22.75;63.97
22830;BME280;11581;51.250;6.778;2022-08-05T05:11:22;100837.72;;;22.19;64.04
22830;BME280;11581;51.250;6.778;2022-08-05T05:13:48;100932.97;;;22.80;63.88
22830;BME280;11581;51.250;6.778;2022-08-05T05:16:17;100921.78;;;22.70;64.20
22830;BME280;11581;51.250;6.778;2022-08-05T05:18:44;100961.00;;;22.80;63.53
22830;BME280;11581;51.250;6.778;2022-08-05T05:21:11;100953.91;;;22.79;63.79
22830;BME280;11581;51.250;6.778;2022-08-05T05:23:38;100941.13;;;22.80;63.88
22830;BME280;11581;51.250;6.778;2022-08-05T05:26:05;100946.13;;;22.83;63.92
22830;BME280;11581;51.250;6.778;2022-08-05T05:28:32;100815.31;;;21.99;63.94
22830;BME280;11581;51.250;6.778;2022-08-05T05:30:59;100955.47;;;22.93;64.03
22830;BME280;11581;51.250;6.778;2022-08-05T05:33:28;100955.41;;;23.00;64.23
22830;BME280;11581;51.250;6.778;2022-08-05T05:35:55;100947.03;;;23.01;63.59
22830;BME280;11581;51.250;6.778;2022-08-05T05:38:22;100906.19;;;22.83;63.28
22830;BME280;11581;51.250;6.778;2022-08-05T05:40:49;100964.44;;;23.18;63.08
22830;BME280;11581;51.250;6.778;2022-08-05T05:43:17;100962.28;;;23.27;62.81
22830;BME280;11581;51.250;6.778;2022-08-05T05:45:45;100962.19;;;23.33;62.46
22830;BME280;11581;51.250;6.778;2022-08-05T05:48:12;100965.94;;;23.39;62.16
22830;BME280;11581;51.250;6.778;2022-08-05T05:50:43;100980.53;;;23.44;62.53
22830;BME280;11581;51.250;6.778;2022-08-05T05:53:10;100984.22;;;23.50;62.02
22830;BME280;11581;51.250;6.778;2022-08-05T05:55:37;100980.59;;;23.56;61.89
22830;BME280;11581;51.250;6.778;2022-08-05T05:58:04;100989.16;;;23.59;61.93
22830;BME280;11581;51.250;6.778;2022-08-05T06:00:32;100997.47;;;23.64;61.78
22830;BME280;11581;51.250;6.778;2022-08-05T06:02:59;100987.66;;;23.63;61.61
22830;BME280;11581;51.250;6.778;2022-08-05T06:05:26;100880.69;;;23.02;61.36
22830;BME280;11581;51.250;6.778;2022-08-05T06:07:55;100988.06;;;23.78;61.13
22830;BME280;11581;51.250;6.778;2022-08-05T06:10:22;100987.16;;;23.84;60.95
22830;BME280;11581;51.250;6.778;2022-08-05T06:12:49;100811.47;;;22.80;60.53
22830;BME280;11581;51.250;6.778;2022-08-05T06:15:16;100968.56;;;23.81;60.28
22830;BME280;11581;51.250;6.778;2022-08-05T06:17:42;100987.03;;;23.97;60.33
22830;BME280;11581;51.250;6.778;2022-08-05T06:20:10;100992.88;;;24.01;60.06
22830;BME280;11581;51.250;6.778;2022-08-05T06:22:37;100991.13;;;24.07;59.85
22830;BME280;11581;51.250;6.778;2022-08-05T06:25:07;100969.47;;;23.93;60.29
22830;BME280;11581;51.250;6.778;2022-08-05T06:27:34;101002.16;;;24.12;59.51
22830;BME280;11581;51.250;6.778;2022-08-05T06:30:01;101013.66;;;24.14;59.42
22830;BME280;11581;51.250;6.778;2022-08-05T06:32:28;101017.44;;;24.13;59.28
22830;BME280;11581;51.250;6.778;2022-08-05T06:34:56;101022.91;;;24.13;59.47
22830;BME280;11581;51.250;6.778;2022-08-05T06:37:26;101033.78;;;24.13;59.52
22830;BME280;11581;51.250;6.778;2022-08-05T06:39:53;101013.38;;;24.03;59.02
22830;BME280;11581;51.250;6.778;2022-08-05T06:42:22;101024.44;;;24.09;58.88
22830;BME280;11581;51.250;6.778;2022-08-05T06:44:49;101027.59;;;24.06;58.49
22830;BME280;11581;51.250;6.778;2022-08-05T06:47:15;101035.16;;;24.03;58.80
22830;BME280;11581;51.250;6.778;2022-08-05T06:49:42;101028.50;;;23.99;58.47
22830;BME280;11581;51.250;6.778;2022-08-05T06:52:09;101040.94;;;23.95;58.48
22830;BME280;11581;51.250;6.778;2022-08-05T06:54:36;101045.13;;;23.91;58.25
22830;BME280;11581;51.250;6.778;2022-08-05T06:57:03;101028.13;;;23.78;58.26
22830;BME280;11581;51.250;6.778;2022-08-05T06:59:32;101054.06;;;23.80;58.72
22830;BME280;11581;51.250;6.778;2022-08-05T07:01:59;101052.22;;;23.74;58.61
22830;BME280;11581;51.250;6.778;2022-08-05T07:04:26;101052.69;;;23.71;58.66
22830;BME280;11581;51.250;6.778;2022-08-05T07:06:53;101059.41;;;23.69;58.70
22830;BME280;11581;51.250;6.778;2022-08-05T07:09:20;101054.41;;;23.66;58.89
22830;BME280;11581;51.250;6.778;2022-08-05T07:11:48;101059.25;;;23.64;59.03
22830;BME280;11581;51.250;6.778;2022-08-05T07:14:16;101063.25;;;23.61;58.61
22830;BME280;11581;51.250;6.778;2022-08-05T07:17:02;101071.41;;;23.61;58.50
22830;BME280;11581;51.250;6.778;2022-08-05T07:19:29;101071.19;;;23.63;58.39
22830;BME280;11581;51.250;6.778;2022-08-05T07:21:56;100979.41;;;23.03;58.31
22830;BME280;11581;51.250;6.778;2022-08-05T07:24:23;101078.38;;;23.57;58.19
22830;BME280;11581;51.250;6.778;2022-08-05T07:26:51;100993.09;;;22.96;58.14
22830;BME280;11581;51.250;6.778;2022-08-05T07:29:18;101082.44;;;23.48;58.13
22830;BME280;11581;51.250;6.778;2022-08-05T07:31:46;101088.09;;;23.47;58.03
22830;BME280;11581;51.250;6.778;2022-08-05T07:34:14;101085.00;;;23.43;58.39
22830;BME280;11581;51.250;6.778;2022-08-05T07:36:41;101028.38;;;23.03;58.07
22830;BME280;11581;51.250;6.778;2022-08-05T07:39:08;101100.72;;;23.41;58.30
22830;BME280;11581;51.250;6.778;2022-08-05T07:41:35;101087.84;;;23.30;58.08
22830;BME280;11581;51.250;6.778;2022-08-05T07:44:04;101029.94;;;22.92;58.31
22830;BME280;11581;51.250;6.778;2022-08-05T07:46:31;101117.91;;;23.42;57.93
22830;BME280;11581;51.250;6.778;2022-08-05T07:49:01;101120.63;;;23.42;57.82
22830;BME280;11581;51.250;6.778;2022-08-05T07:51:29;101114.34;;;23.41;57.63
22830;BME280;11581;51.250;6.778;2022-08-05T07:53:56;101117.28;;;23.40;57.62
22830;BME280;11581;51.250;6.778;2022-08-05T07:56:23;101088.81;;;23.11;57.49
22830;BME280;11581;51.250;6.778;2022-08-05T07:58:50;101135.13;;;23.36;57.60
22830;BME280;11581;51.250;6.778;2022-08-05T08:01:17;101144.81;;;23.25;57.74
22830;BME280;11581;51.250;6.778;2022-08-05T08:03:45;101077.66;;;22.88;57.49
22830;BME280;11581;51.250;6.778;2022-08-05T08:06:12;101068.56;;;22.76;57.33
22830;BME280;11581;51.250;6.778;2022-08-05T08:08:41;101140.00;;;23.21;57.69
22830;BME280;11581;51.250;6.778;2022-08-05T08:11:08;101147.09;;;23.28;57.43
22830;BME280;11581;51.250;6.778;2022-08-05T08:13:35;101153.59;;;23.27;57.40
22830;BME280;11581;51.250;6.778;2022-08-05T08:16:03;101142.16;;;23.12;57.51
22830;BME280;11581;51.250;6.778;2022-08-05T08:18:30;101162.19;;;23.24;57.53
22830;BME280;11581;51.250;6.778;2022-08-05T08:20:57;101167.44;;;23.26;57.45
22830;BME280;11581;51.250;6.778;2022-08-05T08:23:25;101171.81;;;23.27;57.15
22830;BME280;11581;51.250;6.778;2022-08-05T08:25:53;101183.53;;;23.27;56.83
22830;BME280;11581;51.250;6.778;2022-08-05T08:28:20;101188.13;;;23.27;56.24
22830;BME280;11581;51.250;6.778;2022-08-05T08:30:47;101185.00;;;23.23;55.91
22830;BME280;11581;51.250;6.778;2022-08-05T08:33:14;101112.06;;;22.76;55.98
22830;BME280;11581;51.250;6.778;2022-08-05T08:35:41;101182.25;;;22.92;55.83
22830;BME280;11581;51.250;6.778;2022-08-05T08:38:08;101188.22;;;23.07;56.28
22830;BME280;11581;51.250;6.778;2022-08-05T08:40:38;101194.94;;;23.05;56.46
22830;BME280;11581;51.250;6.778;2022-08-05T08:43:09;101107.97;;;22.48;56.62
22830;BME280;11581;51.250;6.778;2022-08-05T08:45:37;101186.00;;;22.91;56.65
22830;BME280;11581;51.250;6.778;2022-08-05T08:48:05;101202.25;;;23.04;56.46
22830;BME280;11581;51.250;6.778;2022-08-05T08:50:33;101174.69;;;22.94;57.01
22830;BME280;11581;51.250;6.778;2022-08-05T08:53:04;101194.28;;;23.09;56.94
22830;BME280;11581;51.250;6.778;2022-08-05T08:55:32;101180.69;;;23.03;57.16
22830;BME280;11581;51.250;6.778;2022-08-05T08:57:59;101186.13;;;23.09;57.02
22830;BME280;11581;51.250;6.778;2022-08-05T09:00:29;101197.63;;;23.11;56.41
22830;BME280;11581;51.250;6.778;2022-08-05T09:02:56;101163.56;;;23.02;56.61
22830;BME280;11581;51.250;6.778;2022-08-05T09:05:24;101218.63;;;23.35;56.68
22830;BME280;11581;51.250;6.778;2022-08-05T09:07:51;101225.91;;;23.41;56.43
22830;BME280;11581;51.250;6.778;2022-08-05T09:10:19;101230.50;;;23.47;56.00
22830;BME280;11581;51.250;6.778;2022-08-05T09:12:46;101217.53;;;23.43;55.83
22830;BME280;11581;51.250;6.778;2022-08-05T09:15:14;101218.53;;;23.48;55.84
22830;BME280;11581;51.250;6.778;2022-08-05T09:17:43;101166.78;;;23.17;55.81
22830;BME280;11581;51.250;6.778;2022-08-05T09:20:11;100984.03;;;22.09;55.59
22830;BME280;11581;51.250;6.778;2022-08-05T09:23:06;101222.88;;;23.56;54.87
22830;BME280;11581;51.250;6.778;2022-08-05T09:25:38;101244.69;;;23.80;55.04
22830;BME280;11581;51.250;6.778;2022-08-05T09:28:10;101233.59;;;23.75;55.10
22830;BME280;11581;51.250;6.778;2022-08-05T09:30:41;101249.03;;;23.88;54.64
22830;BME280;11581;51.250;6.778;2022-08-05T09:33:10;101253.19;;;23.90;54.60
22830;BME280;11581;51.250;6.778;2022-08-05T09:35:38;101259.25;;;23.92;54.48
22830;BME280;11581;51.250;6.778;2022-08-05T09:40:45;101266.81;;;23.97;54.67
22830;BME280;11581;51.250;6.778;2022-08-05T09:43:25;101265.97;;;23.96;54.32
22830;BME280;11581;51.250;6.778;2022-08-05T09:45:53;101267.19;;;24.00;54.33
22830;BME280;11581;51.250;6.778;2022-08-05T09:48:24;101269.53;;;23.97;54.54
22830;BME280;11581;51.250;6.778;2022-08-05T09:50:54;101283.72;;;24.06;54.58
22830;BME280;11581;51.250;6.778;2022-08-05T09:53:22;101268.47;;;23.91;54.27
22830;BME280;11581;51.250;6.778;2022-08-05T09:55:54;101286.97;;;24.14;54.38
22830;BME280;11581;51.250;6.778;2022-08-05T09:58:22;101291.53;;;24.20;53.78
22830;BME280;11581;51.250;6.778;2022-08-05T10:00:57;101290.25;;;24.23;53.72
22830;BME280;11581;51.250;6.778;2022-08-05T10:03:27;101300.25;;;24.29;53.48
22830;BME280;11581;51.250;6.778;2022-08-05T10:06:03;101300.19;;;24.35;53.42
22830;BME280;11581;51.250;6.778;2022-08-05T10:08:30;101291.97;;;24.42;53.42
22830;BME280;11581;51.250;6.778;2022-08-05T10:10:57;101287.03;;;24.50;53.43
22830;BME280;11581;51.250;6.778;2022-08-05T10:13:27;101289.28;;;24.60;53.17
22830;BME280;11581;51.250;6.778;2022-08-05T10:15:54;101313.91;;;24.89;53.92
22830;BME280;11581;51.250;6.778;2022-08-05T10:18:23;101277.78;;;24.94;54.24
22830;BME280;11581;51.250;6.778;2022-08-05T10:20:55;101320.09;;;25.50;52.51
22830;BME280;11581;51.250;6.778;2022-08-05T10:23:24;101293.34;;;25.82;52.45
22830;BME280;11581;51.250;6.778;2022-08-05T10:25:53;101263.72;;;26.20;54.52
22830;BME280;11581;51.250;6.778;2022-08-05T10:28:22;101307.75;;;27.16;52.65
22830;BME280;11581;51.250;6.778;2022-08-05T10:30:50;101337.28;;;28.09;49.63
22830;BME280;11581;51.250;6.778;2022-08-05T10:33:18;101334.59;;;28.81;48.05
22830;BME280;11581;51.250;6.778;2022-08-05T10:35:48;101333.31;;;29.48;46.63
22830;BME280;11581;51.250;6.778;2022-08-05T10:38:17;101330.66;;;30.11;42.97
22830;BME280;11581;51.250;6.778;2022-08-05T10:40:52;101331.69;;;30.68;41.41
22830;BME280;11581;51.250;6.778;2022-08-05T10:43:30;101337.50;;;31.18;39.22
22830;BME280;11581;51.250;6.778;2022-08-05T10:46:01;101337.66;;;31.58;40.66
22830;BME280;11581;51.250;6.778;2022-08-05T10:48:34;101346.56;;;31.90;37.71
22830;BME280;11581;51.250;6.778;2022-08-05T10:51:05;101293.06;;;31.91;38.46
22830;BME280;11581;51.250;6.778;2022-08-05T10:53:39;101328.69;;;32.33;36.31
22830;BME280;11581;51.250;6.778;2022-08-05T10:56:08;101348.78;;;32.69;36.62
22830;BME280;11581;51.250;6.778;2022-08-05T10:58:35;101321.72;;;32.66;36.76
22830;BME280;11581;51.250;6.778;2022-08-05T11:01:12;101169.50;;;31.88;36.50
22830;BME280;11581;51.250;6.778;2022-08-05T11:04:01;101341.47;;;33.18;36.10
22830;BME280;11581;51.250;6.778;2022-08-05T11:06:28;101348.00;;;33.52;36.48
22830;BME280;11581;51.250;6.778;2022-08-05T11:09:20;101337.56;;;33.87;36.00
22830;BME280;11581;51.250;6.778;2022-08-05T11:11:48;101352.50;;;34.25;35.07
22830;BME280;11581;51.250;6.778;2022-08-05T11:14:23;101307.38;;;34.25;33.01
22830;BME280;11581;51.250;6.778;2022-08-05T11:17:28;101351.41;;;34.83;33.57
22830;BME280;11581;51.250;6.778;2022-08-05T11:19:56;101282.19;;;34.55;32.88
22830;BME280;11581;51.250;6.778;2022-08-05T11:22:38;101327.56;;;34.87;31.58
22830;BME280;11581;51.250;6.778;2022-08-05T11:25:41;101353.44;;;35.01;31.81
22830;BME280;11581;51.250;6.778;2022-08-05T11:28:37;101349.16;;;34.90;31.81
22830;BME280;11581;51.250;6.778;2022-08-05T11:31:26;101361.41;;;34.79;31.71
22830;BME280;11581;51.250;6.778;2022-08-05T11:33:57;101331.03;;;34.46;31.27
22830;BME280;11581;51.250;6.778;2022-08-05T11:36:41;101351.59;;;34.63;30.83
22830;BME280;11581;51.250;6.778;2022-08-05T11:39:13;101358.56;;;34.61;31.87
22830;BME280;11581;51.250;6.778;2022-08-05T11:41:49;101351.59;;;34.35;30.56
22830;BME280;11581;51.250;6.778;2022-08-05T11:44:19;101364.16;;;34.22;30.42
22830;BME280;11581;51.250;6.778;2022-08-05T11:46:48;101365.47;;;33.96;31.15
22830;BME280;11581;51.250;6.778;2022-08-05T11:49:17;101368.94;;;33.68;31.77
22830;BME280;11581;51.250;6.778;2022-08-05T11:51:48;101369.84;;;33.48;31.79
22830;BME280;11581;51.250;6.778;2022-08-05T11:54:21;101370.19;;;33.27;31.36
22830;BME280;11581;51.250;6.778;2022-08-05T11:56:53;101363.91;;;33.11;31.56
22830;BME280;11581;51.250;6.778;2022-08-05T11:59:21;101282.56;;;32.44;32.70
22830;BME280;11581;51.250;6.778;2022-08-05T12:01:58;101367.31;;;32.88;32.65
22830;BME280;11581;51.250;6.778;2022-08-05T12:04:28;101351.56;;;32.64;31.99
22830;BME280;11581;51.250;6.778;2022-08-05T12:06:58;101370.31;;;32.72;32.16
22830;BME280;11581;51.250;6.778;2022-08-05T12:09:28;101372.00;;;32.63;31.64
22830;BME280;11581;51.250;6.778;2022-08-05T12:11:57;101383.88;;;32.53;32.09
22830;BME280;11581;51.250;6.778;2022-08-05T12:14:35;101375.88;;;32.42;32.87
22830;BME280;11581;51.250;6.778;2022-08-05T12:17:06;101313.47;;;31.90;33.13
22830;BME280;11581;51.250;6.778;2022-08-05T12:19:40;101373.09;;;32.32;33.10
22830;BME280;11581;51.250;6.778;2022-08-05T12:22:07;101377.50;;;32.33;33.65
22830;BME280;11581;51.250;6.778;2022-08-05T12:24:39;101378.91;;;32.30;32.64
22830;BME280;11581;51.250;6.778;2022-08-05T12:27:09;101381.38;;;32.27;32.64
22830;BME280;11581;51.250;6.778;2022-08-05T12:29:36;101382.75;;;32.24;32.77
22830;BME280;11581;51.250;6.778;2022-08-05T12:32:04;101335.56;;;31.90;32.78
22830;BME280;11581;51.250;6.778;2022-08-05T12:34:33;101386.63;;;32.23;32.83
22830;BME280;11581;51.250;6.778;2022-08-05T12:37:05;101361.75;;;32.13;32.92
22830;BME280;11581;51.250;6.778;2022-08-05T12:39:37;101397.09;;;32.31;33.57
22830;BME280;11581;51.250;6.778;2022-08-05T12:42:21;101391.34;;;32.38;32.68
22830;BME280;11581;51.250;6.778;2022-08-05T12:44:48;101397.41;;;32.55;33.89
22830;BME280;11581;51.250;6.778;2022-08-05T12:47:25;101404.84;;;32.79;33.26
22830;BME280;11581;51.250;6.778;2022-08-05T12:49:52;101355.69;;;32.86;33.35
22830;BME280;11581;51.250;6.778;2022-08-05T12:52:20;101399.47;;;33.43;32.00
22830;BME280;11581;51.250;6.778;2022-08-05T12:54:47;101402.69;;;33.65;31.99
22830;BME280;11581;51.250;6.778;2022-08-05T12:57:16;101402.84;;;33.83;31.27
22830;BME280;11581;51.250;6.778;2022-08-05T12:59:47;101403.59;;;34.04;30.07
22830;BME280;11581;51.250;6.778;2022-08-05T13:02:18;101386.41;;;34.07;30.57
22830;BME280;11581;51.250;6.778;2022-08-05T13:04:47;101367.00;;;34.12;29.74
22830;BME280;11581;51.250;6.778;2022-08-05T13:07:17;101417.09;;;34.54;29.47